Time;durP1;ratioP1;P1;durP2;ratioP2;P2;SDS_P1;SDS_P2;PMS_P1;PMS_P2;Temp;Humidity;BMP_temperature;BMP_pressure;BME280_temperature;BME280_humidity;BME280_pressure;Samples;Min_cycle;Max_cycle;Signal;HPM_P1;HPM_P2
2021/01/15 00:01:23;;;;;;;10.20;6.85;;;8.90;96.70;;;;;;4830441;29;20054;-73
2021/01/15 00:03:51;;;;;;;10.48;6.28;;;8.90;96.70;;;;;;4830104;29;20053;-72
2021/01/15 00:06:21;;;;;;;11.80;7.40;;;8.90;96.70;;;;;;4830470;29;20061;-72
2021/01/15 00:08:48;;;;;;;9.82;6.32;;;8.90;96.70;;;;;;4833186;29;20042;-73
2021/01/15 00:11:17;;;;;;;8.68;5.95;;;8.90;96.70;;;;;;4848171;29;20094;-73
2021/01/15 00:13:44;;;;;;;7.95;5.88;;;9.00;96.70;;;;;;4828598;29;20050;-73
2021/01/15 00:16:18;;;;;;;9.77;7.05;;;9.00;96.70;;;;;;4845457;29;20042;-73
2021/01/15 00:18:46;;;;;;;11.30;7.80;;;9.00;96.70;;;;;;4832740;29;20623;-73
2021/01/15 00:21:29;;;;;;;9.32;6.85;;;8.90;96.70;;;;;;4830384;29;20053;-73
2021/01/15 00:23:59;;;;;;;8.98;6.65;;;8.70;96.70;;;;;;4831512;29;20054;-73
2021/01/15 00:26:28;;;;;;;10.30;7.53;;;8.70;96.70;;;;;;4828744;29;20040;-73
2021/01/15 00:28:56;;;;;;;10.90;7.63;;;8.80;96.70;;;;;;4846598;29;20054;-73
2021/01/15 00:31:31;;;;;;;13.88;9.60;;;8.80;96.70;;;;;;4832678;29;20045;-73
2021/01/15 00:33:59;;;;;;;11.70;8.25;;;8.80;96.70;;;;;;4830886;29;20443;-73
2021/01/15 00:36:26;;;;;;;11.75;8.65;;;8.80;96.70;;;;;;4834958;29;20069;-73
2021/01/15 00:38:55;;;;;;;11.18;8.05;;;8.80;96.70;;;;;;4832418;29;20037;-72
2021/01/15 00:41:22;;;;;;;11.32;7.82;;;8.80;96.70;;;;;;4831744;29;20057;-73
2021/01/15 00:43:49;;;;;;;10.35;7.35;;;8.90;96.70;;;;;;4844244;29;20106;-73
2021/01/15 00:48:55;;;;;;;8.25;5.82;;;8.90;96.70;;;;;;4847010;29;20156;-73
2021/01/15 00:51:22;;;;;;;6.20;4.60;;;8.90;96.70;;;;;;4830912;29;20046;-73
2021/01/15 00:53:49;;;;;;;7.18;4.97;;;8.90;96.70;;;;;;4846721;29;20054;-73
2021/01/15 00:56:18;;;;;;;6.57;3.75;;;8.90;96.70;;;;;;4834830;29;20050;-72
2021/01/15 00:58:46;;;;;;;4.70;3.20;;;8.90;95.90;;;;;;4832744;29;20042;-73
2021/01/15 01:01:15;;;;;;;8.57;4.13;;;8.90;95.90;;;;;;4831804;29;20054;-73
2021/01/15 01:03:49;;;;;;;4.57;3.40;;;8.90;95.90;;;;;;4833208;29;20053;-73
2021/01/15 01:06:20;;;;;;;8.15;2.88;;;8.90;95.30;;;;;;4830809;29;20061;-73
2021/01/15 01:08:48;;;;;;;5.07;3.30;;;8.90;95.10;;;;;;4845106;29;20125;-73
2021/01/15 01:11:19;;;;;;;4.10;3.05;;;8.90;95.40;;;;;;4829572;29;20046;-73
2021/01/15 01:13:47;;;;;;;5.53;3.00;;;8.90;95.20;;;;;;4832388;29;20054;-72
2021/01/15 01:16:15;;;;;;;6.63;3.53;;;8.80;94.90;;;;;;4834100;29;20034;-73
2021/01/15 01:18:43;;;;;;;5.18;3.22;;;8.80;95.50;;;;;;4829654;29;20049;-73
2021/01/15 01:21:11;;;;;;;5.10;3.30;;;8.70;95.40;;;;;;4835404;29;20318;-73
2021/01/15 01:23:39;;;;;;;6.80;3.28;;;8.70;95.20;;;;;;4833382;29;20045;-73
2021/01/15 01:26:06;;;;;;;4.78;3.47;;;8.80;95.90;;;;;;4830035;29;20386;-73
2021/01/15 01:28:35;;;;;;;4.40;3.00;;;8.80;95.60;;;;;;4832329;29;20141;-73
2021/01/15 01:31:02;;;;;;;5.80;3.58;;;8.60;94.40;;;;;;4831521;29;20588;-73
2021/01/15 01:33:30;;;;;;;6.32;3.75;;;8.60;95.40;;;;;;4829711;29;20053;-73
2021/01/15 01:35:57;;;;;;;6.90;3.70;;;8.60;94.90;;;;;;4830824;29;20089;-73
2021/01/15 01:38:25;;;;;;;5.13;3.35;;;8.60;94.10;;;;;;4831724;29;20161;-72
2021/01/15 01:40:52;;;;;;;5.72;2.95;;;8.60;95.40;;;;;;4831174;29;20379;-73
2021/01/15 01:43:19;;;;;;;4.90;3.63;;;8.60;94.60;;;;;;4834638;29;20486;-73
2021/01/15 01:45:47;;;;;;;5.07;3.08;;;8.70;96.20;;;;;;4832536;29;20046;-73
2021/01/15 01:48:15;;;;;;;4.63;3.40;;;8.70;95.90;;;;;;4829556;29;20090;-73
2021/01/15 01:50:45;;;;;;;4.85;3.42;;;8.70;96.60;;;;;;4833079;29;20053;-73
2021/01/15 01:53:15;;;;;;;6.20;3.85;;;8.70;96.60;;;;;;4832248;29;20644;-73
2021/01/15 01:55:43;;;;;;;4.53;3.17;;;8.60;95.70;;;;;;4844932;29;20049;-72
2021/01/15 01:58:11;;;;;;;5.18;3.65;;;8.70;96.40;;;;;;4817525;29;20050;-72
2021/01/15 02:00:40;;;;;;;5.28;3.38;;;8.60;95.40;;;;;;4830806;29;20052;-73
2021/01/15 02:03:08;;;;;;;6.15;3.45;;;8.60;96.30;;;;;;4846528;29;20046;-72
2021/01/15 02:05:36;;;;;;;4.53;3.08;;;8.50;95.90;;;;;;4830446;29;20057;-73
2021/01/15 02:08:03;;;;;;;4.80;3.40;;;8.50;96.20;;;;;;4828820;29;20049;-73
2021/01/15 02:10:38;;;;;;;5.03;4.10;;;8.50;96.70;;;;;;4832144;29;20553;-73
2021/01/15 02:13:14;;;;;;;5.82;3.53;;;8.60;96.70;;;;;;4844450;29;20045;-73
2021/01/15 02:15:46;;;;;;;5.03;3.50;;;8.60;96.70;;;;;;4828397;29;20048;-73
2021/01/15 02:18:24;;;;;;;4.93;3.08;;;8.50;96.40;;;;;;4830274;29;20054;-73
2021/01/15 02:21:08;;;;;;;5.05;3.50;;;8.50;96.70;;;;;;4831514;29;20132;-73
2021/01/15 02:23:38;;;;;;;5.38;4.22;;;8.50;96.70;;;;;;4840403;29;20046;-72
2021/01/15 02:26:28;;;;;;;6.53;3.83;;;8.40;96.70;;;;;;4833267;29;20414;-73
2021/01/15 02:29:13;;;;;;;6.43;3.97;;;8.40;96.70;;;;;;4831650;29;20052;-72
2021/01/15 02:32:01;;;;;;;5.55;3.60;;;8.40;96.70;;;;;;4845789;29;20102;-72
2021/01/15 02:34:35;;;;;;;4.95;3.58;;;8.40;96.70;;;;;;4830661;29;20046;-73
2021/01/15 02:37:15;;;;;;;5.45;3.53;;;8.40;96.70;;;;;;4832106;29;20516;-73
2021/01/15 02:39:53;;;;;;;5.45;3.05;;;8.40;96.70;;;;;;4844522;29;20589;-73
2021/01/15 02:42:23;;;;;;;5.10;3.30;;;8.40;96.70;;;;;;4824850;29;20054;-73
2021/01/15 02:44:52;;;;;;;4.85;2.80;;;8.40;96.70;;;;;;4831326;29;20038;-73
2021/01/15 02:47:27;;;;;;;6.05;3.38;;;8.40;96.70;;;;;;4845884;29;20042;-73
2021/01/15 02:49:57;;;;;;;4.15;3.15;;;8.40;96.70;;;;;;4840695;29;20106;-73
2021/01/15 02:52:25;;;;;;;7.57;3.22;;;8.40;96.70;;;;;;4826549;29;20038;-73
2021/01/15 02:54:53;;;;;;;5.07;3.38;;;8.40;96.70;;;;;;4845004;29;20534;-72
2021/01/15 02:57:20;;;;;;;4.45;3.10;;;8.40;96.70;;;;;;4842635;29;20397;-68
2021/01/15 02:59:47;;;;;;;5.60;3.30;;;8.40;96.70;;;;;;4831262;29;20124;-68
2021/01/15 03:02:20;;;;;;;4.72;2.85;;;8.40;96.70;;;;;;4829378;29;20053;-68
2021/01/15 03:04:56;;;;;;;6.13;3.25;;;8.40;96.70;;;;;;4843967;29;20533;-69
2021/01/15 03:07:26;;;;;;;4.88;3.25;;;8.40;96.70;;;;;;4830133;29;20099;-68
2021/01/15 03:09:56;;;;;;;5.10;3.25;;;8.50;96.70;;;;;;4845524;29;20058;-69
2021/01/15 03:12:25;;;;;;;6.53;3.55;;;8.40;96.70;;;;;;4833265;29;20467;-68
2021/01/15 03:14:53;;;;;;;5.47;3.72;;;8.40;96.70;;;;;;4839797;29;20463;-70
2021/01/15 03:17:24;;;;;;;4.93;3.03;;;8.40;96.70;;;;;;4829339;29;20532;-69
2021/01/15 03:19:53;;;;;;;5.93;4.03;;;8.40;96.70;;;;;;4828360;29;20064;-69
2021/01/15 03:22:21;;;;;;;5.97;3.00;;;8.50;96.70;;;;;;4830256;29;20042;-68
2021/01/15 03:24:52;;;;;;;6.97;4.03;;;8.50;96.70;;;;;;4847296;29;20046;-74
2021/01/15 03:27:21;;;;;;;4.20;3.40;;;8.50;96.70;;;;;;4829705;29;20512;-73
2021/01/15 03:29:48;;;;;;;6.00;3.40;;;8.50;96.70;;;;;;4828145;29;20053;-74
2021/01/15 03:32:16;;;;;;;5.45;3.60;;;8.50;96.70;;;;;;4838228;29;20042;-74
2021/01/15 03:34:44;;;;;;;6.55;3.70;;;8.50;96.70;;;;;;4828209;29;20125;-74
2021/01/15 03:37:12;;;;;;;6.68;3.45;;;8.50;96.70;;;;;;4816901;29;20038;-73
2021/01/15 03:39:39;;;;;;;5.20;3.97;;;8.50;96.70;;;;;;4842873;29;20068;-73
2021/01/15 03:42:06;;;;;;;5.28;3.40;;;8.50;96.70;;;;;;4831362;29;20045;-73
2021/01/15 03:44:33;;;;;;;6.82;4.00;;;8.50;96.70;;;;;;4829472;29;20042;-74
2021/01/15 03:47:00;;;;;;;4.22;3.35;;;8.50;96.70;;;;;;4830421;29;20638;-73
2021/01/15 03:49:27;;;;;;;6.20;4.20;;;8.40;96.70;;;;;;4829212;29;20050;-74
2021/01/15 03:51:54;;;;;;;5.88;4.30;;;8.40;96.70;;;;;;4830250;29;20068;-73
2021/01/15 03:54:23;;;;;;;5.13;3.60;;;8.40;96.70;;;;;;4836912;29;20050;-74
2021/01/15 03:56:51;;;;;;;4.68;3.15;;;8.40;96.70;;;;;;4826781;29;20047;-74
2021/01/15 03:59:18;;;;;;;4.88;3.72;;;8.40;96.70;;;;;;4828878;29;20096;-73
2021/01/15 04:01:46;;;;;;;6.10;4.00;;;8.40;96.70;;;;;;4834928;29;20537;-73
2021/01/15 04:04:13;;;;;;;6.95;3.70;;;8.30;96.70;;;;;;4829466;29;20052;-73
2021/01/15 04:06:40;;;;;;;6.15;3.85;;;8.30;96.70;;;;;;4831524;29;20512;-74
2021/01/15 04:09:07;;;;;;;6.20;3.50;;;8.30;96.70;;;;;;4832773;29;20056;-73
2021/01/15 04:11:35;;;;;;;6.25;3.60;;;8.30;96.70;;;;;;4822015;29;20052;-73
2021/01/15 04:14:02;;;;;;;7.38;3.83;;;8.40;96.70;;;;;;4839331;29;20465;-73
2021/01/15 04:16:29;;;;;;;4.97;3.42;;;8.40;96.70;;;;;;4836966;29;20049;-73
2021/01/15 04:18:57;;;;;;;5.93;3.70;;;8.40;96.70;;;;;;4836635;29;20050;-73
2021/01/15 04:21:24;;;;;;;4.93;3.13;;;8.40;96.70;;;;;;4836258;29;20356;-73
2021/01/15 04:23:51;;;;;;;5.00;3.33;;;8.40;96.70;;;;;;4836677;29;20070;-73
2021/01/15 04:26:19;;;;;;;4.90;3.55;;;8.40;96.70;;;;;;4834764;29;20049;-74
2021/01/15 04:28:49;;;;;;;4.78;3.47;;;8.40;96.70;;;;;;4836074;29;20056;-73
2021/01/15 04:31:17;;;;;;;5.65;3.95;;;8.40;96.70;;;;;;4849789;29;20077;-74
2021/01/15 04:33:45;;;;;;;4.40;3.03;;;8.30;96.70;;;;;;4838055;29;20709;-70
2021/01/15 04:36:12;;;;;;;6.93;4.00;;;8.30;96.70;;;;;;4832159;29;20041;-68
2021/01/15 04:38:40;;;;;;;6.38;4.18;;;8.30;96.70;;;;;;4837109;29;20042;-69
2021/01/15 04:41:08;;;;;;;6.47;4.13;;;8.30;96.70;;;;;;4833413;29;20586;-68
2021/01/15 04:43:38;;;;;;;6.05;3.92;;;8.30;96.70;;;;;;4838446;29;20519;-68
2021/01/15 04:46:06;;;;;;;7.78;4.03;;;8.30;96.70;;;;;;4832291;29;20054;-69
2021/01/15 04:48:41;;;;;;;6.40;4.03;;;8.20;96.70;;;;;;4837236;29;20481;-69
2021/01/15 04:51:17;;;;;;;4.85;3.40;;;8.20;96.70;;;;;;4834554;29;20102;-69
2021/01/15 04:53:53;;;;;;;5.07;3.30;;;8.20;96.70;;;;;;4849383;29;20050;-69
2021/01/15 04:56:30;;;;;;;5.72;3.17;;;8.20;96.70;;;;;;4831964;29;20556;-68
2021/01/15 04:59:02;;;;;;;4.85;3.15;;;8.20;96.70;;;;;;4843071;29;20141;-69
2021/01/15 05:01:38;;;;;;;6.43;3.60;;;8.10;96.70;;;;;;4832757;29;20054;-68
2021/01/15 05:04:07;;;;;;;6.45;3.72;;;8.10;96.70;;;;;;4832626;29;20129;-68
2021/01/15 05:06:45;;;;;;;5.00;3.25;;;8.10;96.70;;;;;;4834934;29;20116;-69
2021/01/15 05:09:21;;;;;;;4.97;3.20;;;8.20;96.70;;;;;;4847300;29;20143;-69
2021/01/15 05:11:51;;;;;;;6.28;3.88;;;8.20;96.70;;;;;;4833490;29;20497;-68
2021/01/15 05:14:19;;;;;;;6.80;3.70;;;8.20;96.70;;;;;;4834103;29;20050;-68
2021/01/15 05:16:49;;;;;;;6.80;3.67;;;8.20;96.70;;;;;;4834493;29;20045;-70
2021/01/15 05:19:18;;;;;;;5.60;3.42;;;8.20;96.70;;;;;;4846528;29;20042;-69
2021/01/15 05:21:50;;;;;;;5.68;3.53;;;8.20;96.70;;;;;;4834320;29;20075;-69
2021/01/15 05:24:19;;;;;;;7.53;3.95;;;8.20;96.70;;;;;;4835118;29;20138;-69
2021/01/15 05:26:46;;;;;;;7.90;3.83;;;8.20;96.70;;;;;;4831533;29;20922;-70
2021/01/15 05:29:16;;;;;;;5.55;3.70;;;8.30;96.70;;;;;;4831977;29;20046;-68
2021/01/15 05:31:49;;;;;;;6.15;3.33;;;8.30;96.70;;;;;;4834508;29;20048;-69
2021/01/15 05:34:17;;;;;;;6.07;3.42;;;8.30;96.70;;;;;;4833626;29;20049;-69
2021/01/15 05:36:44;;;;;;;5.07;3.33;;;8.30;96.70;;;;;;4835045;29;20094;-68
2021/01/15 05:39:13;;;;;;;4.50;3.40;;;8.20;96.70;;;;;;4830809;29;20057;-69
2021/01/15 05:41:41;;;;;;;4.97;3.50;;;8.20;96.70;;;;;;4832307;29;20057;-69
2021/01/15 05:44:09;;;;;;;5.88;3.88;;;8.10;96.70;;;;;;4830014;29;20052;-70
2021/01/15 05:46:46;;;;;;;6.03;3.53;;;8.10;96.70;;;;;;4835871;29;20042;-68
2021/01/15 05:49:14;;;;;;;5.43;3.53;;;8.10;96.70;;;;;;4843213;29;20034;-68
2021/01/15 05:51:42;;;;;;;5.57;3.53;;;8.10;96.70;;;;;;4820373;29;20038;-69
2021/01/15 05:54:10;;;;;;;5.25;3.17;;;8.10;96.70;;;;;;4834835;29;20046;-69
2021/01/15 05:56:42;;;;;;;6.05;3.70;;;8.00;96.70;;;;;;4834675;29;20053;-69
2021/01/15 05:59:11;;;;;;;6.63;3.80;;;8.10;96.70;;;;;;4830568;29;20130;-69
2021/01/15 06:01:48;;;;;;;5.82;3.50;;;8.10;96.70;;;;;;4831761;29;20069;-69
2021/01/15 06:04:18;;;;;;;4.53;3.00;;;8.10;96.70;;;;;;4832719;29;20057;-69
2021/01/15 06:06:46;;;;;;;4.05;3.10;;;8.20;96.70;;;;;;4832030;29;20141;-69
2021/01/15 06:09:20;;;;;;;4.93;3.08;;;8.10;96.70;;;;;;4830807;29;20445;-69
2021/01/15 06:11:49;;;;;;;3.95;3.03;;;8.20;96.70;;;;;;4830722;29;20050;-69
2021/01/15 06:14:19;;;;;;;6.15;3.10;;;8.20;96.70;;;;;;4829793;29;20536;-69
2021/01/15 06:16:47;;;;;;;6.25;3.80;;;8.20;96.70;;;;;;4833057;29;20049;-69
2021/01/15 06:19:14;;;;;;;8.38;3.30;;;8.20;96.70;;;;;;4829452;29;20382;-69
2021/01/15 06:21:53;;;;;;;7.07;3.65;;;8.20;96.70;;;;;;4833777;29;20046;-70
2021/01/15 06:24:22;;;;;;;8.63;3.80;;;8.10;96.70;;;;;;4828780;29;20045;-69
2021/01/15 06:27:05;;;;;;;7.72;3.22;;;8.10;96.70;;;;;;4831475;29;20128;-68
2021/01/15 06:29:43;;;;;;;6.22;3.40;;;8.10;96.70;;;;;;4835516;29;20496;-68
2021/01/15 06:32:11;;;;;;;4.35;2.92;;;8.20;96.70;;;;;;4828882;29;20053;-69
2021/01/15 06:34:47;;;;;;;4.13;2.83;;;8.20;96.70;;;;;;4830946;29;20496;-68
2021/01/15 06:37:20;;;;;;;4.80;3.20;;;8.20;96.70;;;;;;4827165;29;20074;-69
2021/01/15 06:40:09;;;;;;;6.15;3.22;;;8.20;96.70;;;;;;4848210;29;20646;-68
2021/01/15 06:42:47;;;;;;;5.53;2.67;;;8.20;96.70;;;;;;4849753;29;20070;-68
2021/01/15 06:45:15;;;;;;;6.60;3.70;;;8.20;96.70;;;;;;4833067;29;20073;-69
2021/01/15 06:47:45;;;;;;;6.18;3.03;;;8.20;96.70;;;;;;4833661;29;20042;-68
2021/01/15 06:50:16;;;;;;;6.25;3.22;;;8.10;96.70;;;;;;4842566;29;20098;-69
2021/01/15 06:52:49;;;;;;;10.23;3.90;;;8.10;96.70;;;;;;4831873;29;20517;-68
2021/01/15 06:55:19;;;;;;;5.25;4.13;;;8.10;96.70;;;;;;4831540;29;20045;-68
2021/01/15 06:57:48;;;;;;;6.00;3.33;;;8.10;96.70;;;;;;4835520;29;20037;-69
2021/01/15 07:00:23;;;;;;;7.80;4.40;;;8.00;96.70;;;;;;4832232;29;20062;-68
2021/01/15 07:03:25;;;;;;;9.57;5.07;;;8.00;96.70;;;;;;4832893;29;20038;-68
2021/01/15 07:05:54;;;;;;;11.55;5.32;;;8.00;96.70;;;;;;4826493;29;20069;-69
2021/01/15 07:08:24;;;;;;;12.70;6.07;;;8.10;96.70;;;;;;4833007;29;20102;-70
2021/01/15 07:10:51;;;;;;;10.80;5.63;;;8.10;96.70;;;;;;4843392;29;20057;-70
2021/01/15 07:13:27;;;;;;;11.10;4.63;;;8.00;96.70;;;;;;4833620;29;20053;-70
2021/01/15 07:15:55;;;;;;;6.97;4.75;;;7.90;96.70;;;;;;4843072;29;20485;-70
2021/01/15 07:18:31;;;;;;;9.52;5.35;;;7.90;96.70;;;;;;4832545;29;20042;-69
2021/01/15 07:21:07;;;;;;;8.38;4.18;;;7.80;96.70;;;;;;4829848;29;20075;-70
2021/01/15 07:23:52;;;;;;;8.25;4.70;;;7.90;96.70;;;;;;4830881;29;20053;-69
2021/01/15 07:26:20;;;;;;;8.73;4.18;;;7.90;96.70;;;;;;4826435;29;20050;-69
2021/01/15 07:28:49;;;;;;;9.52;4.70;;;7.90;96.70;;;;;;4833479;29;20385;-69
2021/01/15 07:31:25;;;;;;;13.63;4.57;;;7.90;96.70;;;;;;4831739;29;20046;-70
2021/01/15 07:33:56;;;;;;;12.05;5.10;;;7.80;96.70;;;;;;4830096;29;20085;-68
2021/01/15 07:36:33;;;;;;;7.53;4.10;;;7.80;96.70;;;;;;4829633;29;20267;-69
2021/01/15 07:39:06;;;;;;;12.43;4.82;;;7.80;96.70;;;;;;4829541;29;20485;-70
2021/01/15 07:41:42;;;;;;;9.27;4.60;;;7.80;96.70;;;;;;4836777;29;20045;-71
2021/01/15 07:44:38;;;;;;;19.58;9.57;;;7.80;96.70;;;;;;4848938;29;20049;-68
2021/01/15 07:47:11;;;;;;;7.37;5.00;;;7.90;96.70;;;;;;4835285;29;20517;-69
2021/01/15 07:49:46;;;;;;;10.05;4.70;;;7.90;96.70;;;;;;4836812;29;20516;-69
2021/01/15 07:52:14;;;;;;;12.55;6.55;;;7.80;96.70;;;;;;4847996;29;20080;-69
2021/01/15 07:54:58;;;;;;;18.63;8.82;;;7.80;96.70;;;;;;4831752;29;20508;-69
2021/01/15 07:57:26;;;;;;;29.38;19.35;;;7.80;96.70;;;;;;4834058;29;20040;-69
2021/01/15 07:59:53;;;;;;;22.83;13.65;;;7.70;96.70;;;;;;4825133;29;20509;-69
2021/01/15 08:02:21;;;;;;;22.27;13.48;;;7.60;96.70;;;;;;4836152;29;20050;-68
2021/01/15 08:04:49;;;;;;;17.10;10.27;;;7.60;96.70;;;;;;4834801;29;20102;-68
2021/01/15 08:07:27;;;;;;;18.45;10.60;;;7.60;96.70;;;;;;4835614;29;20540;-69
2021/01/15 08:09:54;;;;;;;16.95;10.18;;;7.60;96.70;;;;;;4846756;29;20420;-69
2021/01/15 08:12:23;;;;;;;17.75;10.18;;;7.70;96.70;;;;;;4837102;29;20446;-69
2021/01/15 08:14:51;;;;;;;21.88;12.57;;;7.80;96.70;;;;;;4839699;29;20066;-68
2021/01/15 08:17:26;;;;;;;22.30;12.18;;;7.90;96.70;;;;;;4843252;29;20054;-69
2021/01/15 08:19:53;;;;;;;20.60;12.02;;;8.10;96.70;;;;;;4835140;29;20399;-68
2021/01/15 08:22:21;;;;;;;33.78;18.77;;;8.20;96.70;;;;;;4847383;29;20052;-68
2021/01/15 08:24:50;;;;;;;36.10;21.52;;;8.40;96.70;;;;;;4836481;29;20041;-68
2021/01/15 08:27:18;;;;;;;40.80;23.83;;;8.50;96.70;;;;;;4835476;29;20049;-68
2021/01/15 08:29:47;;;;;;;34.15;19.30;;;8.60;96.70;;;;;;4835041;29;20045;-69
2021/01/15 08:32:14;;;;;;;31.83;17.98;;;8.70;96.70;;;;;;4830953;29;20049;-68
2021/01/15 08:34:44;;;;;;;29.45;17.17;;;8.80;96.70;;;;;;4834900;29;20042;-69
2021/01/15 08:37:16;;;;;;;27.83;13.70;;;8.80;96.70;;;;;;4833582;29;20046;-68
2021/01/15 08:39:54;;;;;;;25.42;11.88;;;8.90;96.70;;;;;;4849804;29;20042;-69
2021/01/15 08:42:23;;;;;;;19.40;11.70;;;9.00;96.70;;;;;;4832004;29;20058;-68
2021/01/15 08:44:51;;;;;;;23.77;12.20;;;9.00;96.70;;;;;;4838921;29;20041;-69
2021/01/15 08:47:20;;;;;;;17.85;9.35;;;9.00;96.70;;;;;;4842746;29;20138;-69
2021/01/15 08:49:53;;;;;;;13.20;7.88;;;9.00;96.70;;;;;;4834108;29;20077;-69
2021/01/15 08:52:23;;;;;;;19.98;9.20;;;9.00;96.70;;;;;;4846045;29;20060;-69
2021/01/15 08:54:52;;;;;;;18.35;8.05;;;9.00;96.70;;;;;;4833643;29;20065;-69
2021/01/15 08:57:24;;;;;;;18.08;8.02;;;9.00;96.70;;;;;;4830084;29;20156;-69
2021/01/15 08:59:53;;;;;;;16.50;8.30;;;9.00;96.70;;;;;;4832368;29;20417;-69
2021/01/15 09:02:22;;;;;;;18.27;8.63;;;9.00;96.70;;;;;;4834014;29;20478;-69
2021/01/15 09:04:52;;;;;;;14.40;8.15;;;9.00;96.70;;;;;;4838321;29;20038;-68
2021/01/15 09:07:20;;;;;;;13.23;8.00;;;9.00;96.70;;;;;;4829848;29;20045;-69
2021/01/15 09:09:50;;;;;;;16.55;7.75;;;9.00;96.70;;;;;;4837762;29;20046;-68
2021/01/15 09:12:20;;;;;;;16.20;8.57;;;9.00;96.70;;;;;;4835308;29;20045;-69
2021/01/15 09:14:49;;;;;;;16.42;7.80;;;9.00;96.70;;;;;;4848353;29;20042;-69
2021/01/15 09:17:25;;;;;;;16.02;8.07;;;9.00;96.70;;;;;;4847638;29;20050;-69
2021/01/15 09:19:52;;;;;;;17.67;8.40;;;9.00;96.70;;;;;;4832413;29;20430;-69
2021/01/15 09:22:22;;;;;;;18.02;9.38;;;9.10;96.70;;;;;;4835192;29;20149;-69
2021/01/15 09:24:49;;;;;;;16.23;8.40;;;9.20;96.70;;;;;;4832678;29;20061;-69
2021/01/15 09:27:17;;;;;;;17.25;7.68;;;9.30;96.70;;;;;;4838865;29;20132;-69
2021/01/15 09:29:44;;;;;;;18.02;8.00;;;9.30;96.70;;;;;;4832625;29;20130;-69
2021/01/15 09:32:12;;;;;;;13.00;7.38;;;9.40;96.70;;;;;;4828794;29;20058;-69
2021/01/15 09:34:41;;;;;;;11.43;6.97;;;9.50;96.70;;;;;;4848390;29;20046;-69
2021/01/15 09:37:08;;;;;;;12.52;6.35;;;9.60;96.70;;;;;;4839910;29;20465;-69
2021/01/15 09:39:36;;;;;;;16.67;7.00;;;9.70;96.70;;;;;;4847256;29;20042;-69
2021/01/15 09:42:03;;;;;;;12.45;6.18;;;9.70;95.90;;;;;;4848548;29;20634;-69
2021/01/15 09:44:31;;;;;;;9.90;5.40;;;9.80;95.80;;;;;;4846800;29;20110;-70
2021/01/15 09:47:00;;;;;;;14.48;6.32;;;9.90;95.00;;;;;;4833364;29;20042;-69
2021/01/15 09:49:31;;;;;;;14.40;5.72;;;10.00;94.90;;;;;;4833792;29;20453;-69
2021/01/15 09:51:59;;;;;;;12.70;6.32;;;10.10;94.90;;;;;;4834023;29;20034;-69
2021/01/15 09:54:27;;;;;;;12.13;6.30;;;10.20;94.00;;;;;;4828668;29;20550;-70
2021/01/15 09:56:54;;;;;;;11.32;5.00;;;10.30;94.10;;;;;;4833740;29;20424;-69
2021/01/15 09:59:22;;;;;;;10.07;4.85;;;10.40;92.90;;;;;;4834884;29;20051;-69
2021/01/15 10:01:51;;;;;;;7.13;4.07;;;10.40;92.00;;;;;;4831870;29;20425;-69
2021/01/15 10:04:18;;;;;;;6.28;2.70;;;10.50;90.50;;;;;;4827949;29;20049;-69
2021/01/15 10:06:46;;;;;;;5.13;2.65;;;10.50;89.90;;;;;;4833682;29;20065;-69
2021/01/15 10:09:15;;;;;;;5.40;2.25;;;10.50;88.00;;;;;;4835776;29;20046;-69
2021/01/15 10:11:45;;;;;;;4.30;2.40;;;10.50;87.40;;;;;;4844568;29;20597;-69
2021/01/15 10:14:14;;;;;;;4.15;2.20;;;10.50;87.50;;;;;;4835877;29;20049;-69
2021/01/15 10:16:43;;;;;;;4.88;1.92;;;10.60;86.90;;;;;;4827701;29;20053;-69
2021/01/15 10:19:10;;;;;;;3.88;1.67;;;10.70;86.90;;;;;;4833284;29;20048;-69
2021/01/15 10:21:39;;;;;;;3.47;1.88;;;10.70;85.80;;;;;;4830386;29;20134;-70
2021/01/15 10:24:08;;;;;;;3.25;1.33;;;10.80;85.80;;;;;;4831407;29;20053;-69
2021/01/15 10:26:38;;;;;;;3.25;1.40;;;10.80;84.70;;;;;;4834510;29;20034;-69
2021/01/15 10:29:07;;;;;;;2.75;1.27;;;11.00;85.10;;;;;;4832573;29;20044;-68
2021/01/15 10:31:36;;;;;;;3.20;1.10;;;11.10;84.40;;;;;;4834202;29;20044;-69
2021/01/15 10:34:04;;;;;;;2.88;1.10;;;11.20;83.50;;;;;;4839841;29;20133;-69
2021/01/15 10:36:32;;;;;;;4.57;1.70;;;11.30;82.20;;;;;;4839524;29;20188;-69
2021/01/15 10:38:59;;;;;;;3.28;0.95;;;11.40;82.90;;;;;;4833745;29;20054;-69
2021/01/15 10:41:30;;;;;;;2.25;1.17;;;11.50;81.60;;;;;;4851515;29;20388;-69
2021/01/15 10:43:59;;;;;;;1.45;0.77;;;11.50;81.50;;;;;;4836400;29;20058;-69
2021/01/15 10:46:30;;;;;;;2.65;1.17;;;11.60;80.70;;;;;;4833255;29;20034;-69
2021/01/15 10:48:57;;;;;;;3.67;1.40;;;11.60;81.60;;;;;;4835174;29;20045;-68
2021/01/15 10:51:25;;;;;;;4.15;1.35;;;11.60;80.50;;;;;;4845398;29;20096;-69
2021/01/15 10:53:52;;;;;;;3.00;1.58;;;11.50;80.80;;;;;;4848887;29;20516;-69
2021/01/15 10:56:20;;;;;;;3.70;1.60;;;11.60;81.40;;;;;;4828793;29;20073;-69
2021/01/15 10:58:48;;;;;;;3.67;1.50;;;11.60;81.10;;;;;;4831479;29;20130;-69
2021/01/15 11:01:16;;;;;;;3.85;1.45;;;11.70;80.90;;;;;;4831911;29;20472;-69
2021/01/15 11:03:45;;;;;;;2.35;1.33;;;11.70;79.90;;;;;;4818869;29;20050;-69
2021/01/15 11:06:20;;;;;;;3.55;1.67;;;11.70;80.70;;;;;;4830717;29;20058;-69
2021/01/15 11:08:48;;;;;;;2.75;1.40;;;11.80;80.40;;;;;;4834832;29;20054;-69
2021/01/15 11:11:15;;;;;;;3.85;1.23;;;11.80;80.20;;;;;;4831958;29;20033;-69
2021/01/15 11:13:42;;;;;;;2.80;1.30;;;11.80;80.10;;;;;;4833507;29;20047;-69
2021/01/15 11:16:11;;;;;;;3.50;1.33;;;11.80;79.50;;;;;;4827137;29;20074;-69
2021/01/15 11:18:40;;;;;;;3.75;1.23;;;11.90;80.50;;;;;;4828570;29;20050;-69
2021/01/15 11:21:08;;;;;;;3.25;1.02;;;11.80;79.90;;;;;;4829314;29;20038;-70
2021/01/15 11:23:36;;;;;;;5.28;0.85;;;11.80;80.00;;;;;;4832193;29;20038;-69
2021/01/15 11:26:04;;;;;;;2.47;0.90;;;11.70;79.80;;;;;;4832490;29;20303;-69
2021/01/15 11:28:32;;;;;;;3.45;1.00;;;11.60;80.20;;;;;;4831266;29;20070;-69
2021/01/15 11:30:59;;;;;;;2.63;1.00;;;11.50;80.30;;;;;;4832092;29;20486;-69
2021/01/15 11:33:27;;;;;;;2.30;0.90;;;11.50;80.50;;;;;;4826401;29;23127;-69
2021/01/15 11:35:55;;;;;;;3.78;1.10;;;11.40;80.70;;;;;;4834300;29;20102;-69
2021/01/15 11:38:23;;;;;;;3.22;1.10;;;11.40;80.20;;;;;;4840371;29;20124;-69
2021/01/15 11:40:50;;;;;;;3.63;1.33;;;11.40;80.80;;;;;;4831355;29;20073;-69
2021/01/15 11:43:17;;;;;;;1.95;0.90;;;11.40;81.50;;;;;;4833200;29;20046;-69
2021/01/15 11:45:45;;;;;;;3.58;1.13;;;11.60;81.70;;;;;;4845582;29;20121;-69
2021/01/15 11:48:12;;;;;;;1.50;1.00;;;11.70;82.00;;;;;;4832350;29;20042;-69
2021/01/15 11:50:41;;;;;;;4.00;1.15;;;11.90;81.30;;;;;;4826434;29;20065;-69
2021/01/15 11:53:09;;;;;;;2.45;1.08;;;12.10;81.20;;;;;;4840898;29;20558;-69
2021/01/15 11:55:37;;;;;;;4.65;1.33;;;12.20;80.90;;;;;;4831334;29;20049;-70
2021/01/15 11:58:04;;;;;;;2.42;1.30;;;12.30;80.20;;;;;;4840412;29;20078;-70
2021/01/15 12:00:31;;;;;;;2.50;1.13;;;12.40;80.70;;;;;;4832104;29;20116;-70
2021/01/15 12:02:59;;;;;;;1.38;0.90;;;12.50;79.90;;;;;;4829596;29;20516;-71
2021/01/15 12:05:26;;;;;;;4.75;1.10;;;12.70;80.40;;;;;;4830233;29;20081;-72
2021/01/15 12:07:54;;;;;;;2.47;0.80;;;12.80;80.40;;;;;;4829217;29;20046;-71
2021/01/15 12:10:23;;;;;;;4.93;1.45;;;12.90;80.00;;;;;;4830007;29;20111;-69
2021/01/15 12:12:50;;;;;;;3.65;0.98;;;12.90;79.40;;;;;;4831668;29;20053;-69
2021/01/15 12:15:18;;;;;;;2.13;0.80;;;12.80;78.90;;;;;;4829034;29;20049;-70
2021/01/15 12:17:45;;;;;;;5.50;1.50;;;12.70;78.50;;;;;;4833980;29;20038;-70
2021/01/15 12:20:13;;;;;;;2.22;1.40;;;12.60;79.00;;;;;;4829875;29;20056;-70
2021/01/15 12:22:41;;;;;;;2.90;1.08;;;12.60;79.10;;;;;;4828218;29;20058;-71
2021/01/15 12:25:10;;;;;;;3.30;1.20;;;12.70;79.60;;;;;;4847709;29;20109;-70
2021/01/15 12:27:38;;;;;;;4.43;1.17;;;12.70;79.50;;;;;;4834119;29;20046;-71
2021/01/15 12:30:07;;;;;;;4.55;1.45;;;12.60;79.00;;;;;;4843674;29;20050;-71
2021/01/15 12:32:35;;;;;;;3.38;1.35;;;12.60;79.60;;;;;;4849537;29;20228;-71
2021/01/15 12:35:04;;;;;;;3.95;1.30;;;12.70;79.00;;;;;;4831603;29;20073;-73
2021/01/15 12:37:31;;;;;;;2.45;1.00;;;12.80;78.10;;;;;;4832300;29;20062;-72
2021/01/15 12:39:59;;;;;;;2.47;1.00;;;13.00;77.10;;;;;;4835773;29;20049;-71
2021/01/15 12:42:27;;;;;;;4.45;1.17;;;13.10;76.90;;;;;;4832131;29;20053;-71
2021/01/15 12:44:56;;;;;;;2.25;1.35;;;13.40;77.10;;;;;;4831365;29;20048;-74
2021/01/15 12:47:24;;;;;;;5.40;1.27;;;13.60;77.10;;;;;;4839807;29;20050;-71
2021/01/15 12:49:52;;;;;;;2.45;1.23;;;13.80;76.70;;;;;;4827508;29;20150;-70
2021/01/15 12:52:20;;;;;;;5.97;1.50;;;13.90;76.00;;;;;;4833778;29;20049;-72
2021/01/15 12:54:55;;;;;;;4.25;1.70;;;13.90;76.20;;;;;;4833511;29;20563;-72
2021/01/15 12:57:24;;;;;;;4.20;1.23;;;13.70;76.30;;;;;;4829851;29;20533;-71
2021/01/15 12:59:54;;;;;;;3.58;1.50;;;13.50;76.40;;;;;;4845266;29;20536;-71
2021/01/15 13:02:25;;;;;;;3.15;1.40;;;13.20;77.30;;;;;;4834946;29;20058;-70
2021/01/15 13:04:56;;;;;;;2.45;1.23;;;13.10;78.20;;;;;;4832025;29;20049;-72
2021/01/15 13:07:31;;;;;;;3.20;1.50;;;12.80;78.00;;;;;;4834610;29;20045;-72